Flight Track Log - Related Links

Times and Time Zones

All times are in EDT time to prevent confusion due to time zone crossing. See the N441S flight status page for this flight to view local times or setup timezone preferences in your user account.

Time Position Orientation Groundspeed Altitude Reporting Facility
EDT Latitude Longitude Course Direction KTS MPH feet Rate Location/Type
Wed 02:20:40 PM 46.9606 -114.1067 146° Southeast 137 158 6,200  Level Salt Lake Center
Wed 02:21:42 PM 47.0006 -114.0939 12° North 147 169 8,200 2,032 Climbing Salt Lake Center
Wed 02:22:44 PM 47.0486 -114.0950 359° North 160 184 10,400 2,032 Climbing Salt Lake Center
Wed 02:23:46 PM 47.0944 -114.0967 359° North 164 189 12,400 1,597 Climbing Salt Lake Center
Wed 02:24:48 PM 47.1467 -114.0983 359° North 176 203 13,700 1,306 Climbing Salt Lake Center
Wed 02:25:00 PM 46.9163 -114.0906 North  Level Estimated
Wed 02:25:50 PM 47.2003 -114.0994 359° North 218 251 15,100  Level Salt Lake Center
Wed 02:26:00 PM 46.9163 -114.0906 146° Southeast  Level Estimated
Wed 02:26:52 PM 47.2519 -114.1025 358° North 184 212 17,100  Level Salt Lake Center
Wed 02:27:54 PM 47.3117 -114.1042 359° North 180 207 18,800 1,548 Climbing Salt Lake Center
Wed 02:28:56 PM 47.3628 -114.1047 360° North 183 211 20,300 1,403 Climbing Salt Lake Center
Wed 02:29:58 PM 47.4144 -114.1078 358° North 186 214 21,700 1,258 Climbing Salt Lake Center
Wed 02:31:00 PM 47.4675 -114.1089 359° North 189 217 22,900 1,113 Climbing Salt Lake Center
Wed 02:32:02 PM 47.5233 -114.1117 358° North 199 229 24,000 1,016 Climbing Salt Lake Center
Wed 02:33:04 PM 47.5811 -114.1122 360° North 206 237 25,000 1,161 Climbing Salt Lake Center
Wed 02:34:06 PM 47.6481 -114.1156 358° North 203 234 26,400 1,161 Climbing Salt Lake Center
Wed 02:35:08 PM 47.7042 -114.1175 359° North 204 235 27,400 919 Climbing Salt Lake Center
Wed 02:36:10 PM 47.7600 -114.1194 359° North 202 232 28,300 774 Climbing Salt Lake Center
Wed 02:37:12 PM 47.8181 -114.1217 359° North 208 239 29,000 677 Climbing Salt Lake Center
Wed 02:38:14 PM 47.8775 -114.1233 359° North 214 246 29,700 726 Climbing Salt Lake Center
Wed 02:39:16 PM 47.9497 -114.1256 359° North 217 250 30,500 720 Climbing Salt Lake Center
Wed 02:40:19 PM 48.0103 -114.1283 358° North 221 254 31,200 624 Climbing Salt Lake Center
Wed 02:41:21 PM 48.0714 -114.1306 359° North 222 255 31,800 532 Climbing Salt Lake Center
Wed 02:42:23 PM 48.1328 -114.1333 358° North 222 255 32,300 532 Climbing Salt Lake Center
Wed 02:43:25 PM 48.1936 -114.1358 358° North 221 254 32,900 339 Climbing Salt Lake Center
Wed 02:44:27 PM 48.2686 -114.1389 358° North 224 258 33,000 48 Climbing Salt Lake Center
Wed 02:45:29 PM 48.3364 -114.1419 358° North 237 273 33,000  Level Salt Lake Center
Wed 02:46:31 PM 48.4092 -114.1442 359° North 255 293 33,000  Level Salt Lake Center
Wed 02:47:33 PM 48.4831 -114.1469 359° North 263 303 33,000  Level Salt Lake Center
Wed 02:48:35 PM 48.5575 -114.1489 359° North 267 307 33,000  Level Salt Lake Center
Wed 02:49:37 PM 48.6478 -114.1456 North 271 312 33,000  Level Salt Lake Center
Wed 02:50:39 PM 48.7228 -114.1444 North 271 312 33,000  Level Salt Lake Center
Wed 02:51:41 PM 48.7969 -114.1450 360° North 268 308 33,000  Level Salt Lake Center
Wed 02:52:43 PM 48.8708 -114.1419 North 267 307 33,000  Level Salt Lake Center
Wed 02:53:45 PM 48.9439 -114.1531 354° North 265 305 33,000  Level Salt Lake Center
Wed 02:54:47 PM 49.0194 -114.1500 North 271 312 33,000  Level Salt Lake Center
Wed 02:55:49 PM 49.1094 -114.1414 North 272 313 33,000  Level Salt Lake Center
Wed 02:56:51 PM 49.1850 -114.1394 North 272 313 33,000  Level Salt Lake Center
Wed 02:57:53 PM 49.2100 -114.0075 74° East 340 391 33,000  Level Salt Lake Center
Wed 02:58:55 PM 49.2692 -113.9961 North 258 297 33,000  Level Salt Lake Center
Wed 02:59:57 PM 49.2639 -114.0811 265° West 209 241 33,000  Level Salt Lake Center
Wed 03:00:59 PM 49.2433 -114.1589 248° West 212 244 33,000  Level Salt Lake Center
Wed 03:02:01 PM 49.1581 -114.1675 184° South 255 293 33,000  Level Salt Lake Center
Wed 03:03:03 PM 49.0875 -114.1728 183° South 255 293 33,000  Level Salt Lake Center
Wed 03:04:05 PM 49.0144 -114.1761 182° South 262 302 33,000  Level Salt Lake Center
Wed 03:05:07 PM 48.9425 -114.1806 182° South 260 299 33,000  Level Salt Lake Center
Wed 03:06:09 PM 48.8694 -114.1844 182° South 263 303 33,000  Level Salt Lake Center
Wed 03:07:11 PM 48.7961 -114.1889 182° South 264 304 33,000  Level Salt Lake Center
Wed 03:08:13 PM 48.7097 -114.1925 182° South 261 300 33,000  Level Salt Lake Center
Wed 03:09:15 PM 48.6369 -114.1969 182° South 263 303 33,000  Level Salt Lake Center
Wed 03:10:17 PM 48.5642 -114.2014 182° South 261 300 33,000  Level Salt Lake Center
Wed 03:11:19 PM 48.4919 -114.2053 182° South 260 299 33,000  Level Salt Lake Center
Wed 03:12:21 PM 48.4197 -114.2103 183° South 262 302 33,000  Level Salt Lake Center
Wed 03:13:23 PM 48.3472 -114.2144 182° South 261 300 33,000  Level Salt Lake Center
Wed 03:14:25 PM 48.2594 -114.2169 181° South 262 302 33,000  Level Salt Lake Center
Wed 03:15:27 PM 48.1875 -114.2186 181° South 260 299 33,000  Level Salt Lake Center
Wed 03:16:29 PM 48.1147 -114.2233 182° South 260 299 33,000  Level Salt Lake Center
Wed 03:17:31 PM 48.0411 -114.2275 182° South 261 300 33,000  Level Salt Lake Center
Wed 03:18:33 PM 47.9661 -114.2317 182° South 264 304 33,000  Level Salt Lake Center
Wed 03:19:35 PM 47.8897 -114.2350 182° South 270 311 33,000  Level Salt Lake Center
Wed 03:20:37 PM 47.8161 -114.2400 183° South 266 306 33,000  Level Salt Lake Center
Wed 03:21:39 PM 47.7447 -114.2447 183° South 261 300 33,000  Level Salt Lake Center
Wed 03:22:41 PM 47.6731 -114.2483 182° South 257 296 33,000  Level Salt Lake Center
Wed 03:23:43 PM 47.5858 -114.2525 182° South 261 300 33,000  Level Salt Lake Center
Wed 03:24:45 PM 47.5131 -114.2581 183° South 262 302 33,000  Level Salt Lake Center
Wed 03:25:47 PM 47.4400 -114.2617 182° South 263 303 33,000  Level Salt Lake Center
Wed 03:26:49 PM 47.3669 -114.2639 181° South 264 304 33,000  Level Salt Lake Center
Wed 03:27:50 PM 47.2942 -114.2681 182° South 264 304 33,000  Level Salt Lake Center
Wed 03:28:52 PM 47.2208 -114.2728 183° South 264 304 33,000  Level Salt Lake Center
Wed 03:29:54 PM 47.1333 -114.2772 182° South 265 305 33,000  Level Salt Lake Center
Wed 03:30:56 PM 47.0639 -114.2508 165° South 284 327 33,000  Level Salt Lake Center
Wed 03:31:59 PM 47.0964 -114.1631 61° Northeast 298 343 33,000  Level Salt Lake Center
Wed 03:33:01 PM 47.1697 -114.1633 360° North 266 306 33,000  Level Salt Lake Center
Wed 03:34:03 PM 47.2458 -114.1575 North 272 313 33,000  Level Salt Lake Center
Wed 03:35:05 PM 47.3225 -114.1544 North 276 318 33,000  Level Salt Lake Center
Wed 03:36:07 PM 47.4139 -114.1483 North 275 316 33,000  Level Salt Lake Center
Wed 03:37:09 PM 47.4900 -114.1442 North 275 316 33,000  Level Salt Lake Center
Wed 03:38:11 PM 47.5664 -114.1406 North 275 316 33,000  Level Salt Lake Center
Wed 03:39:13 PM 47.6431 -114.1361 North 276 318 33,000  Level Salt Lake Center
Wed 03:40:15 PM 47.7194 -114.1317 North 276 318 33,000  Level Salt Lake Center
Wed 03:41:17 PM 47.8108 -114.1269 North 276 318 33,000  Level Salt Lake Center
Wed 03:42:19 PM 47.8872 -114.1214 North 278 320 33,000  Level Salt Lake Center
Wed 03:43:21 PM 47.9639 -114.1178 North 279 321 33,000  Level Salt Lake Center
Wed 03:44:23 PM 48.0394 -114.1142 North 276 318 33,000  Level Salt Lake Center
Wed 03:45:25 PM 48.1153 -114.1083 North 276 318 33,000  Level Salt Lake Center
Wed 03:46:27 PM 48.2067 -114.1047 North 275 316 33,000  Level Salt Lake Center
Wed 03:47:29 PM 48.2828 -114.1003 North 276 318 33,000  Level Salt Lake Center
Wed 03:48:31 PM 48.3594 -114.0969 North 277 319 33,000  Level Salt Lake Center
Wed 03:49:32 PM 48.4364 -114.0919 North 278 320 33,000  Level Salt Lake Center
Wed 03:50:34 PM 48.5142 -114.0875 North 279 321 33,000  Level Salt Lake Center
Wed 03:51:36 PM 48.5908 -114.0833 North 278 320 33,000  Level Salt Lake Center
Wed 03:52:38 PM 48.6822 -114.0778 North 276 318 33,000  Level Salt Lake Center
Wed 03:53:40 PM 48.7592 -114.0739 North 278 320 33,000  Level Salt Lake Center
Wed 03:54:42 PM 48.8361 -114.0697 North 277 319 33,000  Level Salt Lake Center
Wed 03:55:44 PM 48.9122 -114.0639 North 276 318 33,000  Level Salt Lake Center
Wed 03:56:46 PM 48.9892 -114.0600 North 277 319 33,000  Level Salt Lake Center
Wed 03:57:48 PM 49.0669 -114.0556 North 280 322 33,000  Level Salt Lake Center
Wed 03:58:50 PM 49.1589 -114.0514 North 278 320 33,000  Level Salt Lake Center
Wed 03:59:52 PM 49.2364 -114.0289 11° North 284 327 33,000  Level Salt Lake Center
Wed 04:00:53 PM 49.2161 -113.9097 105° East 319 367 33,000  Level Salt Lake Center
Wed 04:01:55 PM 49.1547 -113.9389 197° South 236 272 33,000  Level Salt Lake Center
Wed 04:02:57 PM 49.0806 -113.9372 179° South 259 298 33,000  Level Salt Lake Center
Wed 04:03:58 PM 48.9500 -113.9500 184° South 260 299 33,000  Level Edmonton Center
Wed 04:04:58 PM 48.8833 -113.9667 189° South 260 299 33,000  Level Edmonton Center
Wed 04:05:58 PM 48.8167 -113.9667 180° South 260 299 33,000  Level Edmonton Center
Wed 04:06:52 PM 48.7914 -113.9564 165° South 262 302 33,000  Level Salt Lake Center
Wed 04:07:54 PM 48.7186 -113.9600 182° South 262 302 33,000  Level Salt Lake Center
Wed 04:08:56 PM 48.6456 -113.9639 182° South 263 303 33,000  Level Salt Lake Center
Wed 04:09:57 PM 48.5728 -113.9700 183° South 262 302 33,000  Level Salt Lake Center
Wed 04:10:59 PM 48.4997 -113.9736 182° South 263 303 33,000  Level Salt Lake Center
Wed 04:12:01 PM 48.4119 -113.9781 182° South 263 303 33,000  Level Salt Lake Center
Wed 04:13:03 PM 48.3394 -113.9825 182° South 261 300 33,000  Level Salt Lake Center
Wed 04:14:05 PM 48.2661 -113.9872 182° South 262 302 33,000  Level Salt Lake Center
Wed 04:15:07 PM 48.1922 -113.9911 182° South 265 305 33,000  Level Salt Lake Center
Wed 04:16:08 PM 48.1183 -113.9950 182° South 264 304 33,000  Level Salt Lake Center
Wed 04:17:10 PM 48.0439 -113.9994 182° South 266 306 33,000  Level Salt Lake Center
Wed 04:18:12 PM 47.9697 -114.0033 182° South 265 305 33,000  Level Salt Lake Center
Wed 04:19:14 PM 47.8958 -114.0081 182° South 264 304 33,000  Level Salt Lake Center
Wed 04:20:16 PM 47.8217 -114.0131 183° South 264 304 33,000  Level Salt Lake Center
Wed 04:21:18 PM 47.7333 -114.0169 182° South 264 304 33,000  Level Salt Lake Center
Wed 04:22:20 PM 47.6592 -114.0214 182° South 265 305 33,000  Level Salt Lake Center
Wed 04:23:21 PM 47.5844 -114.0258 182° South 268 308 33,000  Level Salt Lake Center
Wed 04:24:23 PM 47.5106 -114.0306 182° South 268 308 33,000  Level Salt Lake Center
Wed 04:25:25 PM 47.4367 -114.0339 182° South 266 306 33,000  Level Salt Lake Center
Wed 04:26:27 PM 47.3631 -114.0392 183° South 265 305 33,000  Level Salt Lake Center
Wed 04:27:29 PM 47.2894 -114.0439 182° South 266 306 33,000  Level Salt Lake Center
Wed 04:28:31 PM 47.2006 -114.0486 182° South 267 307 33,000  Level Salt Lake Center
Wed 04:29:33 PM 47.1264 -114.0519 182° South 267 307 33,000  Level Salt Lake Center
Wed 04:30:35 PM 47.0539 -114.0397 173° South 271 312 33,000  Level Salt Lake Center
Wed 04:31:36 PM 47.0786 -113.9392 70° East 302 348 33,000  Level Salt Lake Center
Wed 04:32:38 PM 47.1564 -113.9247 North 283 326 33,000  Level Salt Lake Center
Wed 04:33:40 PM 47.2342 -113.9142 North 281 323 33,000  Level Salt Lake Center
Wed 04:34:43 PM 47.3281 -113.8892 10° North 287 330 33,000  Level Salt Lake Center
Wed 04:35:44 PM 47.4061 -113.8650 12° North 289 333 33,000  Level Salt Lake Center
Wed 04:36:46 PM 47.4850 -113.8469 North 288 331 33,000  Level Salt Lake Center
Wed 04:37:48 PM 47.5639 -113.8261 10° North 288 331 33,000  Level Salt Lake Center
Wed 04:38:50 PM 47.6408 -113.8153 North 281 323 33,000  Level Salt Lake Center
Wed 04:39:51 PM 47.7189 -113.7978 North 284 327 33,000  Level Salt Lake Center
Wed 04:40:53 PM 47.8133 -113.7758 North 288 331 33,000  Level Salt Lake Center
Wed 04:41:55 PM 47.8908 -113.7542 11° North 287 330 33,000  Level Salt Lake Center
Wed 04:42:57 PM 47.9683 -113.7206 16° North 291 335 33,000  Level Salt Lake Center
Wed 04:43:59 PM 48.0464 -113.6992 10° North 288 331 33,000  Level Salt Lake Center
Wed 04:45:01 PM 48.1239 -113.6714 13° North 289 333 33,000  Level Salt Lake Center
Wed 04:46:03 PM 48.2167 -113.6314 16° North 290 334 33,000  Level Salt Lake Center
Wed 04:47:04 PM 48.2942 -113.6261 North 282 325 33,000  Level Salt Lake Center
Wed 04:48:06 PM 48.3681 -113.6303 358° North 271 312 33,000  Level Salt Lake Center
Wed 04:49:08 PM 48.4439 -113.6342 358° North 271 312 33,000  Level Salt Lake Center
Wed 04:50:10 PM 48.5208 -113.6381 358° North 276 318 33,000  Level Salt Lake Center
Wed 04:51:12 PM 48.5964 -113.6425 358° North 275 316 33,000 97 Level Salt Lake Center
Wed 04:52:14 PM 48.6875 -113.6475 358° North 274 315 33,200 439 Climbing Salt Lake Center
Wed 04:53:15 PM 48.6939 -113.7097 279° West 223 257 33,900 390 Climbing Salt Lake Center
Wed 04:54:17 PM 48.6342 -113.7278 191° South 216 249 34,000 48 Climbing Salt Lake Center
Wed 04:55:19 PM 48.5661 -113.7322 182° South 235 270 34,000  Level Salt Lake Center
Wed 04:56:21 PM 48.4953 -113.7361 182° South 248 285 34,000  Level Salt Lake Center
Wed 04:57:23 PM 48.4222 -113.7272 175° South 264 304 34,000  Level Salt Lake Center
Wed 04:58:25 PM 48.4347 -113.6208 80° East 310 357 34,000  Level Salt Lake Center
Wed 04:59:28 PM 48.5167 -113.6397 351° North 255 293 34,000  Level Salt Lake Center
Wed 05:00:30 PM 48.5897 -113.6411 359° North 262 302 34,000  Level Salt Lake Center
Wed 05:01:32 PM 48.6639 -113.6453 358° North 265 305 34,000  Level Salt Lake Center
Wed 05:02:34 PM 48.7392 -113.6489 358° North 268 308 34,000  Level Salt Lake Center
Wed 05:03:36 PM 48.8133 -113.6528 358° North 268 308 34,000  Level Salt Lake Center
Wed 05:04:37 PM 48.9028 -113.6583 358° North 270 311 34,000  Level Salt Lake Center
Wed 05:05:38 PM 48.9500 -113.6833 341° North 270 311 34,000  Level Edmonton Center
Wed 05:06:38 PM 49.0167 -113.6667 North 270 311 34,000  Level Edmonton Center
Wed 05:07:38 PM 49.1000 -113.6833 353° North 270 311 34,000  Level Edmonton Center
Wed 05:08:38 PM 49.1667 -113.6500 18° North 280 322 34,000  Level Edmonton Center
Wed 05:09:38 PM 49.1667 -113.5500 90° East 320 368 34,000  Level Edmonton Center
Wed 05:10:38 PM 49.1000 -113.4000 124° Southeast 310 357 34,000  Level Edmonton Center
Wed 05:11:38 PM 49.1667 -113.3667 18° North 290 334 34,000  Level Edmonton Center
Wed 05:12:38 PM 49.1333 -113.4167 224° Southwest 200 230 34,000  Level Edmonton Center
Wed 05:13:38 PM 49.0833 -113.4500 204° Southwest 240 276 34,000  Level Edmonton Center
Wed 05:14:38 PM 49.0167 -113.4667 189° South 240 276 34,000  Level Edmonton Center
Wed 05:15:38 PM 48.9500 -113.5000 198° South 250 288 34,000  Level Edmonton Center
Wed 05:16:38 PM 48.8667 -113.5167 187° South 250 288 34,000  Level Edmonton Center
Wed 05:17:38 PM 48.8000 -113.5333 189° South 250 288 34,000  Level Edmonton Center
Wed 05:18:38 PM 48.7333 -113.5500 189° South 250 288 34,000  Level Edmonton Center
Wed 05:19:38 PM 48.6667 -113.5833 198° South 250 288 34,000 -50 Level Edmonton Center
Wed 05:20:38 PM 48.6000 -113.6000 189° South 250 288 33,900 -400 Descending Edmonton Center
Wed 05:21:08 PM 48.6022 -113.5919 67° East 254 292 33,400 -1,174 Descending Salt Lake Center
Wed 05:22:10 PM 48.5267 -113.6175 193° South 269 310 32,100 -1,306 Descending Salt Lake Center
Wed 05:23:12 PM 48.4428 -113.6417 191° South 293 337 30,700 -1,548 Descending Salt Lake Center
Wed 05:24:14 PM 48.3422 -113.6719 191° South 306 352 28,900 -1,548 Descending Salt Lake Center
Wed 05:25:16 PM 48.2625 -113.6961 191° South 296 341 27,500 -1,403 Descending Salt Lake Center
Wed 05:26:18 PM 48.1842 -113.7192 191° South 289 333 26,000 -1,452 Descending Salt Lake Center
Wed 05:27:20 PM 48.1042 -113.7439 192° South 291 335 24,500 -1,452 Descending Salt Lake Center
Wed 05:28:22 PM 48.0228 -113.7675 191° South 295 339 23,000 -1,500 Descending Salt Lake Center
Wed 05:29:24 PM 47.9417 -113.7906 191° South 296 341 21,400 -1,452 Descending Salt Lake Center
Wed 05:30:26 PM 47.8611 -113.8144 191° South 294 338 20,000 -1,403 Descending Salt Lake Center
Wed 05:31:28 PM 47.7808 -113.8389 192° South 294 338 18,500 -1,548 Descending Salt Lake Center
Wed 05:32:30 PM 47.6850 -113.8675 191° South 292 336 16,800 -1,452 Descending Salt Lake Center
Wed 05:33:32 PM 47.6039 -113.8900 191° South 293 337 15,500 -823 Descending Salt Lake Center
Wed 05:34:34 PM 47.5339 -113.9125 192° South 259 298 15,100 -194 Descending Salt Lake Center
Wed 05:35:36 PM 47.4675 -113.9308 191° South 244 281 15,100 -387 Level Salt Lake Center
Wed 05:36:38 PM 47.3978 -113.9503 191° South 254 292 14,300 -1,016 Descending Salt Lake Center
Wed 05:37:40 PM 47.3236 -113.9725 191° South 270 311 13,000 -1,258 Descending Salt Lake Center
Wed 05:38:42 PM 47.2369 -113.9989 192° South 265 305 11,700 -1,161 Descending Salt Lake Center
Wed 05:39:44 PM 47.1631 -114.0200 191° South 255 293 10,600 -864 Descending Salt Lake Center
Wed 05:40:47 PM 47.0986 -114.0389 191° South 240 276 9,900 -1,056 Descending Salt Lake Center
Wed 05:41:49 PM 47.0306 -114.0606 192° South 233 268 8,400 -1,113 Descending Salt Lake Center
Wed 05:42:51 PM 46.9706 -114.0564 177° South 221 254 7,600 -968 Descending Salt Lake Center
Wed 05:43:53 PM 46.9256 -114.0181 150° Southeast 189 217 6,400 -1,645 Descending Salt Lake Center
Wed 05:44:55 PM 46.8864 -114.0369 198° South 171 197 4,200 -1,500 Descending Salt Lake Center
Wed 05:45:57 PM 46.9075 -114.0778 307° West 128 147 3,300 -871 Descending Salt Lake Center

Login

Don't have an account? Register now (free) for customized features, flight alerts, and more!